createdAt,value
2023-03-16T00:00:14.130Z,2.53
2023-03-16T00:02:43.046Z,1.73
2023-03-16T00:05:15.195Z,1.60
2023-03-16T00:07:43.862Z,1.83
2023-03-16T00:10:14.179Z,2.08
2023-03-16T00:12:43.765Z,1.83
2023-03-16T00:15:13.428Z,2.00
2023-03-16T00:17:42.466Z,2.40
2023-03-16T00:20:14.022Z,1.80
2023-03-16T00:22:43.022Z,1.83
2023-03-16T00:25:14.539Z,2.07
2023-03-16T00:27:43.105Z,1.53
2023-03-16T00:30:13.532Z,1.60
2023-03-16T00:32:41.992Z,1.47
2023-03-16T00:35:11.061Z,2.57
2023-03-16T00:37:42.929Z,2.00
2023-03-16T00:40:13.919Z,1.70
2023-03-16T00:42:42.519Z,2.27
2023-03-16T00:45:12.557Z,1.97
2023-03-16T00:47:42.274Z,1.70
2023-03-16T00:50:12.177Z,2.20
2023-03-16T00:52:43.366Z,2.97
2023-03-16T00:55:13.123Z,1.97
2023-03-16T00:57:41.618Z,1.83
2023-03-16T01:00:15.845Z,1.73
2023-03-16T01:02:45.446Z,1.70
2023-03-16T01:05:15.735Z,2.37
2023-03-16T01:07:45.636Z,2.20
2023-03-16T01:10:14.636Z,2.43
2023-03-16T01:12:45.238Z,2.13
2023-03-16T01:15:14.357Z,2.30
2023-03-16T01:17:42.778Z,1.70
2023-03-16T01:20:15.064Z,2.30
2023-03-16T01:22:44.845Z,2.00
2023-03-16T01:25:14.076Z,1.57
2023-03-16T01:27:43.133Z,2.60
2023-03-16T01:30:13.493Z,2.57
2023-03-16T01:32:43.447Z,2.37
2023-03-16T01:35:12.224Z,2.37
2023-03-16T01:37:40.692Z,1.93
2023-03-16T01:40:13.257Z,2.43
2023-03-16T01:42:50.250Z,2.37
2023-03-16T01:46:23.510Z,2.83
2023-03-16T01:49:08.178Z,3.00
2023-03-16T01:51:46.705Z,2.97
2023-03-16T01:54:23.117Z,2.10
2023-03-16T01:57:01.199Z,2.63
2023-03-16T01:59:37.042Z,2.77
2023-03-16T02:02:06.209Z,3.23
2023-03-16T02:04:45.297Z,2.87
2023-03-16T02:07:17.285Z,2.83
2023-03-16T02:09:49.619Z,2.80
2023-03-16T02:12:21.428Z,2.57
2023-03-16T02:14:52.604Z,2.60
2023-03-16T02:17:24.662Z,3.23
2023-03-16T02:20:11.280Z,2.50
2023-03-16T02:22:43.873Z,2.80
2023-03-16T02:25:14.416Z,3.40
2023-03-16T02:27:52.806Z,2.93
2023-03-16T02:30:23.156Z,2.73
2023-03-16T02:32:53.960Z,2.53
2023-03-16T02:35:22.777Z,3.03
2023-03-16T02:37:52.597Z,2.83
2023-03-16T02:40:27.798Z,3.53
2023-03-16T02:43:04.508Z,2.80
2023-03-16T02:45:40.825Z,3.67
2023-03-16T02:48:17.349Z,2.90
2023-03-16T02:50:48.462Z,3.00
2023-03-16T02:53:17.716Z,2.80
2023-03-16T02:55:46.553Z,3.37
2023-03-16T02:58:16.179Z,3.50
2023-03-16T03:00:46.492Z,3.40
2023-03-16T03:03:15.344Z,3.20
2023-03-16T03:05:43.789Z,3.00
2023-03-16T03:08:12.401Z,3.57
2023-03-16T03:10:41.135Z,3.27
2023-03-16T03:13:09.663Z,3.67
2023-03-16T03:15:38.115Z,3.13
2023-03-16T03:18:09.063Z,3.00
2023-03-16T03:20:37.515Z,3.97
2023-03-16T03:23:05.966Z,3.13
2023-03-16T03:25:35.306Z,3.40
2023-03-16T03:28:06.609Z,3.93
2023-03-16T03:30:35.088Z,3.83
2023-03-16T03:33:03.556Z,3.73
2023-03-16T03:35:33.633Z,3.70
2023-03-16T03:38:02.107Z,3.80
2023-03-16T03:40:30.805Z,4.10
2023-03-16T03:42:59.410Z,3.20
2023-03-16T03:45:27.885Z,3.60
2023-03-16T03:47:56.585Z,3.43
2023-03-16T03:50:25.033Z,3.20
2023-03-16T03:52:54.858Z,3.67
2023-03-16T03:55:23.427Z,3.77
2023-03-16T03:57:51.893Z,3.80
2023-03-16T04:00:22.127Z,3.97
2023-03-16T04:02:50.659Z,4.73
2023-03-16T04:05:19.382Z,3.77
2023-03-16T04:07:48.281Z,4.50
2023-03-16T04:10:19.442Z,4.47
2023-03-16T04:12:47.845Z,4.20
2023-03-16T04:15:16.377Z,3.93
2023-03-16T04:17:45.163Z,3.80
2023-03-16T04:20:16.073Z,4.13
2023-03-16T04:22:44.576Z,3.87
2023-03-16T04:25:15.979Z,4.10
2023-03-16T04:27:46.904Z,4.97
2023-03-16T04:30:16.745Z,3.37
2023-03-16T04:32:45.247Z,4.20
2023-03-16T04:35:15.636Z,3.57
2023-03-16T04:37:44.171Z,4.37
2023-03-16T04:40:16.900Z,4.37
2023-03-16T04:42:48.695Z,3.63
2023-03-16T04:45:18.730Z,4.20
2023-03-16T04:47:47.176Z,3.77
2023-03-16T04:50:15.713Z,3.50
2023-03-16T04:52:45.274Z,4.23
2023-03-16T04:55:13.779Z,4.63
2023-03-16T04:57:42.193Z,3.40
2023-03-16T05:00:18.794Z,4.13
2023-03-16T05:02:47.606Z,4.53
2023-03-16T05:05:16.327Z,4.63
2023-03-16T05:07:45.528Z,4.20
2023-03-16T05:10:16.947Z,5.10
2023-03-16T05:12:45.402Z,4.00
2023-03-16T05:15:15.569Z,4.40
2023-03-16T05:17:44.362Z,4.60
2023-03-16T05:20:26.024Z,5.40
2023-03-16T05:22:54.629Z,4.23
2023-03-16T05:25:23.215Z,3.40
2023-03-16T05:27:55.081Z,4.53
2023-03-16T05:30:24.985Z,3.80
2023-03-16T05:32:54.807Z,4.20
2023-03-16T05:35:24.332Z,3.83
2023-03-16T05:37:52.996Z,4.17
2023-03-16T05:40:23.168Z,3.93
2023-03-16T05:42:57.641Z,4.07
2023-03-16T05:45:27.972Z,4.03
2023-03-16T05:47:56.739Z,4.87
2023-03-16T05:50:26.520Z,5.03
2023-03-16T05:52:55.359Z,4.77
2023-03-16T05:55:23.802Z,4.53
2023-03-16T05:57:52.173Z,4.83
2023-03-16T06:00:22.896Z,5.33
2023-03-16T06:02:54.853Z,4.03
2023-03-16T06:05:25.227Z,4.20
2023-03-16T06:07:53.734Z,4.73
2023-03-16T06:10:22.929Z,4.27
2023-03-16T06:12:51.607Z,4.57
2023-03-16T06:15:20.265Z,4.77
2023-03-16T06:17:48.897Z,4.70
2023-03-16T06:20:18.918Z,4.70
2023-03-16T06:22:47.501Z,4.20
2023-03-16T06:25:17.122Z,4.50
2023-03-16T06:27:45.593Z,4.23
2023-03-16T06:30:16.373Z,5.27
2023-03-16T06:32:46.395Z,4.83
2023-03-16T06:35:15.908Z,4.43
2023-03-16T06:37:46.372Z,4.63
2023-03-16T06:40:15.115Z,5.00
2023-03-16T06:42:45.665Z,4.40
2023-03-16T06:45:16.655Z,3.40
2023-03-16T06:47:45.348Z,4.33
2023-03-16T06:50:14.122Z,4.53
2023-03-16T06:52:42.730Z,4.83
2023-03-16T06:55:14.512Z,3.63
2023-03-16T06:57:43.095Z,4.33
2023-03-16T07:00:15.418Z,4.37
2023-03-16T07:02:44.312Z,4.23
2023-03-16T07:05:14.329Z,3.80
2023-03-16T07:07:43.532Z,4.43
2023-03-16T07:10:17.373Z,4.90
2023-03-16T07:12:46.456Z,4.10
2023-03-16T07:15:15.212Z,4.75
2023-03-16T07:17:44.103Z,4.22
2023-03-16T07:20:13.868Z,4.70
2023-03-16T07:22:42.856Z,4.47
2023-03-16T07:25:14.043Z,4.07
2023-03-16T07:27:43.923Z,5.20
2023-03-16T07:30:14.444Z,3.93
2023-03-16T07:32:43.263Z,5.30
2023-03-16T07:35:12.732Z,6.55
2023-03-16T07:37:42.093Z,5.87
2023-03-16T07:40:14.543Z,4.07
2023-03-16T07:42:43.055Z,4.22
2023-03-16T07:45:14.478Z,3.97
2023-03-16T07:47:42.920Z,4.30
2023-03-16T07:50:13.386Z,3.90
2023-03-16T07:52:41.770Z,4.60
2023-03-16T07:55:11.984Z,4.47
2023-03-16T07:57:42.500Z,3.22
2023-03-16T08:00:14.217Z,3.65
2023-03-16T08:02:43.088Z,3.28
2023-03-16T08:05:12.863Z,3.90
2023-03-16T08:07:41.350Z,3.92
2023-03-16T08:10:11.971Z,3.78
2023-03-16T08:12:42.843Z,3.63
2023-03-16T08:15:12.384Z,4.70
2023-03-16T08:17:41.827Z,4.00
2023-03-16T08:20:14.977Z,3.90
2023-03-16T08:22:46.848Z,4.32
2023-03-16T08:25:16.676Z,4.80
2023-03-16T08:27:46.765Z,4.55
2023-03-16T08:30:17.087Z,4.20
2023-03-16T08:32:45.613Z,2.88
2023-03-16T08:35:16.757Z,3.70
2023-03-16T08:37:46.399Z,4.40
2023-03-16T08:40:16.315Z,3.30
2023-03-16T08:42:46.876Z,3.38
2023-03-16T08:45:15.388Z,3.03
2023-03-16T08:47:44.445Z,2.67
2023-03-16T08:50:15.574Z,2.92
2023-03-16T08:52:44.091Z,2.40
2023-03-16T08:55:13.385Z,2.78
2023-03-16T08:57:41.833Z,2.67
2023-03-16T09:00:15.584Z,2.10
2023-03-16T09:02:44.547Z,2.30
2023-03-16T09:05:16.041Z,2.35
2023-03-16T09:07:44.665Z,1.92
2023-03-16T09:10:16.285Z,2.25
2023-03-16T09:12:45.507Z,1.67
2023-03-16T09:15:15.416Z,1.83
2023-03-16T09:17:45.881Z,2.00
2023-03-16T09:20:22.705Z,1.45
2023-03-16T09:22:55.907Z,1.70
2023-03-16T09:25:25.455Z,1.58
2023-03-16T09:27:53.919Z,1.27
2023-03-16T09:30:23.995Z,1.30
2023-03-16T09:32:52.534Z,1.83
2023-03-16T09:35:21.108Z,1.48
2023-03-16T09:38:05.253Z,2.53
2023-03-16T09:40:38.258Z,2.17
2023-03-16T09:43:28.101Z,2.33
2023-03-16T09:46:08.534Z,2.28
2023-03-16T09:48:41.124Z,2.05
2023-03-16T09:51:21.081Z,2.30
2023-03-16T09:53:55.329Z,2.35
2023-03-16T09:56:31.974Z,2.70
2023-03-16T09:59:00.720Z,2.75
2023-03-16T10:01:41.751Z,2.08
2023-03-16T10:04:28.680Z,1.80
2023-03-16T10:07:06.496Z,2.72
2023-03-16T10:09:44.162Z,1.75
2023-03-16T10:12:15.914Z,2.60
2023-03-16T10:14:53.316Z,1.65
2023-03-16T10:17:30.307Z,2.28
2023-03-16T10:20:04.824Z,2.03
2023-03-16T10:22:36.336Z,1.60
2023-03-16T10:25:12.939Z,2.65
2023-03-16T10:27:45.229Z,1.67
2023-03-16T10:30:28.248Z,1.92
2023-03-16T10:33:03.290Z,2.30
2023-03-16T10:35:42.976Z,1.60
2023-03-16T10:38:28.091Z,2.55
2023-03-16T10:40:57.940Z,2.38
2023-03-16T10:43:27.130Z,2.70
2023-03-16T10:46:02.575Z,2.40
2023-03-16T10:48:35.537Z,1.85
2023-03-16T10:51:09.418Z,1.80
2023-03-16T10:53:42.581Z,2.08
2023-03-16T10:56:14.832Z,2.80
2023-03-16T10:58:46.193Z,2.72
2023-03-16T11:01:20.703Z,2.30
2023-03-16T11:03:55.412Z,2.47
2023-03-16T11:06:30.686Z,3.45
2023-03-16T11:09:08.822Z,3.05
2023-03-16T11:11:38.745Z,2.80
2023-03-16T11:14:15.425Z,2.42
2023-03-16T11:16:51.209Z,2.55
2023-03-16T11:19:27.714Z,2.42
2023-03-16T11:22:03.660Z,4.25
2023-03-16T11:24:44.137Z,2.40
2023-03-16T11:27:24.001Z,3.35
2023-03-16T11:30:06.889Z,1.90
2023-03-16T11:32:39.097Z,3.53
2023-03-16T11:35:19.633Z,2.63
2023-03-16T11:38:04.343Z,2.60
2023-03-16T11:40:45.461Z,4.70
2023-03-16T11:43:37.135Z,3.20
2023-03-16T11:46:15.767Z,2.67
2023-03-16T11:48:53.160Z,3.17
2023-03-16T11:51:44.069Z,2.35
2023-03-16T11:54:37.252Z,2.33
2023-03-16T11:57:22.332Z,2.92
2023-03-16T12:00:14.980Z,2.83
2023-03-16T12:03:11.257Z,2.78
2023-03-16T12:05:55.261Z,3.95
2023-03-16T12:08:48.684Z,2.63
2023-03-16T12:11:24.420Z,4.30
2023-03-16T12:14:15.803Z,4.00
2023-03-16T12:16:50.337Z,2.50
2023-03-16T12:19:25.581Z,2.97
2023-03-16T12:22:05.416Z,3.17
2023-03-16T12:24:43.574Z,3.10
2023-03-16T12:27:17.730Z,3.33
2023-03-16T12:30:01.850Z,2.95
2023-03-16T12:32:43.217Z,2.60
2023-03-16T12:35:29.092Z,2.95
2023-03-16T12:38:15.539Z,2.72
2023-03-16T12:40:53.337Z,2.50
2023-03-16T12:43:46.505Z,2.92
2023-03-16T12:46:20.727Z,2.95
2023-03-16T12:48:53.927Z,3.00
2023-03-16T12:51:22.404Z,2.50
2023-03-16T12:53:57.439Z,2.97
2023-03-16T12:56:33.188Z,4.68
2023-03-16T12:59:05.784Z,2.88
2023-03-16T13:01:43.763Z,3.40
2023-03-16T13:04:16.301Z,3.13
2023-03-16T13:06:49.452Z,3.53
2023-03-16T13:09:22.897Z,3.78
2023-03-16T13:11:53.381Z,3.42
2023-03-16T13:14:40.582Z,4.07
2023-03-16T13:17:28.339Z,3.13
2023-03-16T13:20:06.695Z,6.30
2023-03-16T13:22:46.589Z,6.30
2023-03-16T13:25:22.573Z,2.95
2023-03-16T13:27:55.952Z,4.40
2023-03-16T13:30:30.160Z,3.00
2023-03-16T13:33:08.855Z,2.53
2023-03-16T13:35:41.158Z,3.08
2023-03-16T13:38:16.866Z,2.78
2023-03-16T13:40:49.471Z,2.38
2023-03-16T13:43:23.896Z,4.32
2023-03-16T13:45:52.674Z,3.22
2023-03-16T13:48:21.263Z,3.67
2023-03-16T13:50:54.458Z,2.58
2023-03-16T13:53:25.954Z,3.75
2023-03-16T13:55:56.048Z,3.10
2023-03-16T13:58:33.047Z,2.75
2023-03-16T14:01:05.572Z,2.50
2023-03-16T14:03:38.663Z,3.83
2023-03-16T14:06:10.449Z,4.40
2023-03-16T14:08:40.469Z,2.97
2023-03-16T14:11:11.581Z,2.42
2023-03-16T14:13:42.075Z,2.85
2023-03-16T14:16:17.763Z,2.40
2023-03-16T14:18:49.389Z,2.83
2023-03-16T14:21:22.128Z,2.78
2023-03-16T14:23:55.172Z,2.67
2023-03-16T14:26:24.082Z,5.05
2023-03-16T14:29:03.484Z,2.72
2023-03-16T14:31:38.461Z,2.65
2023-03-16T14:34:21.330Z,2.90
2023-03-16T14:36:50.211Z,2.60
2023-03-16T14:39:22.889Z,2.35
2023-03-16T14:41:54.639Z,2.42
2023-03-16T14:44:30.857Z,1.95
2023-03-16T14:47:00.302Z,2.63
2023-03-16T14:49:31.043Z,2.50
2023-03-16T14:52:03.278Z,2.42
2023-03-16T14:54:31.902Z,2.13
2023-03-16T14:57:03.897Z,1.95
2023-03-16T14:59:34.100Z,2.83
2023-03-16T15:02:04.362Z,2.30
2023-03-16T15:04:36.311Z,2.13
2023-03-16T15:07:25.205Z,4.70
2023-03-16T15:09:56.338Z,2.00
2023-03-16T15:12:26.264Z,2.53
2023-03-16T15:15:13.298Z,2.10
2023-03-16T15:17:42.326Z,2.78
2023-03-16T15:20:13.929Z,1.88
2023-03-16T15:22:43.856Z,3.10
2023-03-16T15:25:29.185Z,2.10
2023-03-16T15:27:57.672Z,1.55
2023-03-16T15:30:29.266Z,2.03
2023-03-16T15:32:57.963Z,1.85
2023-03-16T15:35:26.605Z,2.10
2023-03-16T15:37:55.255Z,2.65
2023-03-16T15:40:28.244Z,1.90
2023-03-16T15:42:56.967Z,3.40
2023-03-16T15:45:27.264Z,1.70
2023-03-16T15:47:56.173Z,2.30
2023-03-16T15:50:25.975Z,2.30
2023-03-16T15:52:59.686Z,2.30
2023-03-16T15:55:36.685Z,2.17
2023-03-16T15:58:06.348Z,2.17
2023-03-16T16:00:39.580Z,1.83
2023-03-16T16:03:08.748Z,2.40
2023-03-16T16:05:37.235Z,1.95
2023-03-16T16:08:06.566Z,2.15
2023-03-16T16:10:35.792Z,2.38
2023-03-16T16:13:05.625Z,1.75
2023-03-16T16:15:38.310Z,3.40
2023-03-16T16:18:28.923Z,3.15
2023-03-16T16:20:59.211Z,2.90
2023-03-16T16:23:27.906Z,2.97
2023-03-16T16:25:59.705Z,2.33
2023-03-16T16:28:32.605Z,2.08
2023-03-16T16:31:03.381Z,2.25
2023-03-16T16:33:34.418Z,2.05
2023-03-16T16:36:05.162Z,2.13
2023-03-16T16:38:35.962Z,2.53
2023-03-16T16:41:10.098Z,2.30
2023-03-16T16:43:42.758Z,2.95
2023-03-16T16:46:16.889Z,2.67
2023-03-16T16:48:47.785Z,2.58
2023-03-16T16:51:20.941Z,2.85
2023-03-16T16:53:50.256Z,2.53
2023-03-16T16:56:26.816Z,3.58
2023-03-16T16:58:57.744Z,2.97
2023-03-16T17:01:33.103Z,2.53
2023-03-16T17:04:02.666Z,2.88
2023-03-16T17:06:32.001Z,2.97
2023-03-16T17:09:01.170Z,2.55
2023-03-16T17:11:32.690Z,2.70
2023-03-16T17:14:06.391Z,3.35
2023-03-16T17:16:38.286Z,3.63
2023-03-16T17:19:17.920Z,3.35
2023-03-16T17:21:46.868Z,3.22
2023-03-16T17:24:16.773Z,3.47
2023-03-16T17:27:03.370Z,2.95
2023-03-16T17:29:34.430Z,3.05
2023-03-16T17:32:09.353Z,5.47
2023-03-16T17:34:38.770Z,2.78
2023-03-16T17:37:14.287Z,3.08
2023-03-16T17:39:44.742Z,3.15
2023-03-16T17:42:18.427Z,3.00
2023-03-16T17:44:50.314Z,2.88
2023-03-16T17:47:24.166Z,3.35
2023-03-16T17:49:54.977Z,3.65
2023-03-16T17:52:29.617Z,2.60
2023-03-16T17:54:59.824Z,2.63
2023-03-16T17:57:39.871Z,2.63
2023-03-16T18:00:30.154Z,2.50
2023-03-16T18:03:04.056Z,2.75
2023-03-16T18:05:41.634Z,3.55
2023-03-16T18:08:21.033Z,3.47
2023-03-16T18:10:55.070Z,5.05
2023-03-16T18:13:29.447Z,3.33
2023-03-16T18:16:01.111Z,4.00
2023-03-16T18:18:37.667Z,4.43
2023-03-16T18:21:09.388Z,4.07
2023-03-16T18:23:41.358Z,4.03
2023-03-16T18:26:13.217Z,4.28
2023-03-16T18:28:44.936Z,4.38
2023-03-16T18:31:24.401Z,4.57
2023-03-16T18:34:00.847Z,4.70
2023-03-16T18:36:34.477Z,4.82
2023-03-16T18:39:08.637Z,5.22
2023-03-16T18:41:38.350Z,5.90
2023-03-16T18:44:20.015Z,6.32
2023-03-16T18:46:53.272Z,5.80
2023-03-16T18:49:28.665Z,5.88
2023-03-16T18:51:59.670Z,6.70
2023-03-16T18:54:33.436Z,5.53
2023-03-16T18:57:06.847Z,5.57
2023-03-16T18:59:37.795Z,5.93
2023-03-16T19:02:18.804Z,5.15
2023-03-16T19:04:51.309Z,5.55
2023-03-16T19:07:32.448Z,5.88
2023-03-16T19:10:09.583Z,6.05
2023-03-16T19:12:41.084Z,5.78
2023-03-16T19:15:23.640Z,6.13
2023-03-16T19:17:55.448Z,6.57
2023-03-16T19:20:30.961Z,6.97
2023-03-16T19:23:06.714Z,6.38
2023-03-16T19:25:41.912Z,7.22
2023-03-16T19:28:19.125Z,7.75
2023-03-16T19:30:53.673Z,6.47
2023-03-16T19:33:28.076Z,7.50
2023-03-16T19:36:00.913Z,8.65
2023-03-16T19:38:31.627Z,6.38
2023-03-16T19:41:04.302Z,9.50
2023-03-16T19:43:35.671Z,8.35
2023-03-16T19:46:08.045Z,6.40
2023-03-16T19:48:43.008Z,5.93
2023-03-16T19:51:20.782Z,5.28
2023-03-16T19:53:53.047Z,5.78
2023-03-16T19:56:26.860Z,6.95
2023-03-16T19:58:57.242Z,5.80
2023-03-16T20:01:34.736Z,6.20
2023-03-16T20:04:04.901Z,5.45
2023-03-16T20:06:36.781Z,5.43
2023-03-16T20:09:07.379Z,4.85
2023-03-16T20:11:38.180Z,5.05
2023-03-16T20:14:20.711Z,4.90
2023-03-16T20:16:51.075Z,6.18
2023-03-16T20:19:22.350Z,5.03
2023-03-16T20:21:54.490Z,6.35
2023-03-16T20:24:25.093Z,5.55
2023-03-16T20:26:55.672Z,6.78
2023-03-16T20:29:32.954Z,4.93
2023-03-16T20:32:06.188Z,5.40
2023-03-16T20:34:36.403Z,5.00
2023-03-16T20:37:27.252Z,4.90
2023-03-16T20:40:00.406Z,5.47
2023-03-16T20:42:33.986Z,5.63
2023-03-16T20:45:03.352Z,5.22
2023-03-16T20:47:33.674Z,4.78
2023-03-16T20:50:03.242Z,5.65
2023-03-16T20:52:35.536Z,3.90
2023-03-16T20:55:05.715Z,5.22
2023-03-16T20:57:35.732Z,6.57
2023-03-16T21:00:19.492Z,4.10
2023-03-16T21:02:49.006Z,4.97
2023-03-16T21:05:19.322Z,6.32
2023-03-16T21:07:49.971Z,5.63
2023-03-16T21:10:23.492Z,5.05
2023-03-16T21:12:56.922Z,5.10
2023-03-16T21:15:30.929Z,4.97
2023-03-16T21:18:03.264Z,5.22
2023-03-16T21:20:34.514Z,5.13
2023-03-16T21:23:06.252Z,5.88
2023-03-16T21:25:43.178Z,5.00
2023-03-16T21:28:13.430Z,4.82
2023-03-16T21:30:46.717Z,6.35
2023-03-16T21:33:23.534Z,6.30
2023-03-16T21:35:52.380Z,6.78
2023-03-16T21:38:24.171Z,6.60
2023-03-16T21:40:54.037Z,6.53
2023-03-16T21:43:23.773Z,5.68
2023-03-16T21:45:54.026Z,6.40
2023-03-16T21:48:26.020Z,6.07
2023-03-16T21:50:55.106Z,6.40
2023-03-16T21:53:28.318Z,6.82
2023-03-16T21:55:58.113Z,5.43
2023-03-16T21:58:27.247Z,6.45
2023-03-16T22:00:58.272Z,7.93
2023-03-16T22:03:40.794Z,7.35
2023-03-16T22:06:18.061Z,6.57
2023-03-16T22:08:49.252Z,7.72
2023-03-16T22:11:20.716Z,6.00
2023-03-16T22:13:50.146Z,5.50
2023-03-16T22:16:20.899Z,5.55
2023-03-16T22:18:52.220Z,6.00
2023-03-16T22:21:29.462Z,6.18
2023-03-16T22:24:00.582Z,5.72
2023-03-16T22:26:30.302Z,6.45
2023-03-16T22:29:00.876Z,7.13
2023-03-16T22:31:35.019Z,6.50
2023-03-16T22:34:04.703Z,7.28
2023-03-16T22:36:34.479Z,7.80
2023-03-16T22:39:12.293Z,7.53
2023-03-16T22:41:40.707Z,7.18
2023-03-16T22:44:21.313Z,7.07
2023-03-16T22:46:50.822Z,7.20
2023-03-16T22:49:27.732Z,5.65
2023-03-16T22:51:58.623Z,6.00
2023-03-16T22:54:30.309Z,5.20
2023-03-16T22:56:58.890Z,5.10
2023-03-16T22:59:29.032Z,5.82
2023-03-16T23:01:58.378Z,5.68
2023-03-16T23:04:30.328Z,5.35
2023-03-16T23:06:59.425Z,6.00
2023-03-16T23:09:29.799Z,5.25
2023-03-16T23:11:59.554Z,4.55
2023-03-16T23:14:33.226Z,4.75
2023-03-16T23:17:01.956Z,5.43
2023-03-16T23:19:34.693Z,4.90
2023-03-16T23:22:06.349Z,6.13
2023-03-16T23:24:36.950Z,5.20
2023-03-16T23:27:08.038Z,4.57
2023-03-16T23:29:36.629Z,5.55
2023-03-16T23:32:05.542Z,5.53
2023-03-16T23:34:34.008Z,5.30
2023-03-16T23:37:02.448Z,5.25
2023-03-16T23:39:30.896Z,5.13
2023-03-16T23:42:01.401Z,5.57
2023-03-16T23:44:30.617Z,6.10
2023-03-16T23:47:00.889Z,5.68
2023-03-16T23:49:33.808Z,6.53
2023-03-16T23:52:02.792Z,5.10
2023-03-16T23:54:33.355Z,5.23
2023-03-16T23:57:03.267Z,6.85
2023-03-16T23:59:31.678Z,6.43
